sensor_id;sensor_type;location;lat;lon;timestamp;pressure;altitude;pressure_sealevel;temperature;humidity
72721;BME280;60835;50.974;10.322;2024-03-02T00:00:39;96623.19;;;8.54;100.00
72721;BME280;60835;50.974;10.322;2024-03-02T00:03:07;96635.00;;;8.58;100.00
72721;BME280;60835;50.974;10.322;2024-03-02T00:05:33;96651.16;;;8.55;100.00
72721;BME280;60835;50.974;10.322;2024-03-02T00:08:00;96647.25;;;8.66;100.00
72721;BME280;60835;50.974;10.322;2024-03-02T00:10:45;96643.53;;;8.61;100.00
72721;BME280;60835;50.974;10.322;2024-03-02T00:13:12;96633.38;;;8.57;100.00
72721;BME280;60835;50.974;10.322;2024-03-02T00:15:53;96608.94;;;8.49;100.00
72721;BME280;60835;50.974;10.322;2024-03-02T00:18:31;96637.47;;;8.60;100.00
72721;BME280;60835;50.974;10.322;2024-03-02T00:20:59;96646.69;;;8.71;100.00
72721;BME280;60835;50.974;10.322;2024-03-02T00:23:30;96632.28;;;8.52;100.00
72721;BME280;60835;50.974;10.322;2024-03-02T00:25:58;96601.41;;;8.31;100.00
72721;BME280;60835;50.974;10.322;2024-03-02T00:28:27;96646.81;;;8.63;100.00
72721;BME280;60835;50.974;10.322;2024-03-02T00:31:09;96644.91;;;8.56;100.00
72721;BME280;60835;50.974;10.322;2024-03-02T00:33:45;96649.63;;;8.61;100.00
72721;BME280;60835;50.974;10.322;2024-03-02T00:36:21;96646.88;;;8.69;100.00
72721;BME280;60835;50.974;10.322;2024-03-02T00:38:50;96660.53;;;8.58;100.00
72721;BME280;60835;50.974;10.322;2024-03-02T00:41:27;96645.00;;;8.48;100.00
72721;BME280;60835;50.974;10.322;2024-03-02T00:44:07;96649.19;;;8.57;100.00
72721;BME280;60835;50.974;10.322;2024-03-02T00:46:36;96655.44;;;8.56;100.00
72721;BME280;60835;50.974;10.322;2024-03-02T00:51:37;96636.81;;;8.58;100.00
72721;BME280;60835;50.974;10.322;2024-03-02T00:54:07;96648.38;;;8.57;100.00
72721;BME280;60835;50.974;10.322;2024-03-02T00:56:34;96644.91;;;8.56;100.00
72721;BME280;60835;50.974;10.322;2024-03-02T00:59:02;96660.09;;;8.54;100.00
72721;BME280;60835;50.974;10.322;2024-03-02T01:01:28;96664.84;;;8.44;100.00
72721;BME280;60835;50.974;10.322;2024-03-02T01:03:55;96665.72;;;8.51;100.00
72721;BME280;60835;50.974;10.322;2024-03-02T01:06:23;96660.81;;;8.48;100.00
72721;BME280;60835;50.974;10.322;2024-03-02T01:08:50;96659.91;;;8.56;100.00
72721;BME280;60835;50.974;10.322;2024-03-02T01:11:19;96664.53;;;8.54;100.00
72721;BME280;60835;50.974;10.322;2024-03-02T01:13:46;96665.28;;;8.48;100.00
72721;BME280;60835;50.974;10.322;2024-03-02T01:16:13;96616.13;;;8.11;100.00
72721;BME280;60835;50.974;10.322;2024-03-02T01:18:41;96670.47;;;8.41;100.00
72721;BME280;60835;50.974;10.322;2024-03-02T01:21:08;96663.56;;;8.40;100.00
72721;BME280;60835;50.974;10.322;2024-03-02T01:23:35;96663.19;;;8.43;100.00
72721;BME280;60835;50.974;10.322;2024-03-02T01:26:01;96668.09;;;8.46;100.00
72721;BME280;60835;50.974;10.322;2024-03-02T01:28:28;96670.38;;;8.35;100.00
72721;BME280;60835;50.974;10.322;2024-03-02T01:30:54;96675.66;;;8.35;100.00
72721;BME280;60835;50.974;10.322;2024-03-02T01:33:21;96678.13;;;8.36;100.00
72721;BME280;60835;50.974;10.322;2024-03-02T01:35:48;96674.19;;;8.32;100.00
72721;BME280;60835;50.974;10.322;2024-03-02T01:38:14;96661.72;;;8.26;100.00
72721;BME280;60835;50.974;10.322;2024-03-02T01:40:41;96670.94;;;8.30;100.00
72721;BME280;60835;50.974;10.322;2024-03-02T01:43:08;96669.47;;;8.28;100.00
72721;BME280;60835;50.974;10.322;2024-03-02T01:45:35;96671.19;;;8.35;100.00
72721;BME280;60835;50.974;10.322;2024-03-02T01:48:04;96670.75;;;8.32;100.00
72721;BME280;60835;50.974;10.322;2024-03-02T01:50:32;96672.25;;;8.26;100.00
72721;BME280;60835;50.974;10.322;2024-03-02T01:53:00;96672.53;;;8.31;100.00
72721;BME280;60835;50.974;10.322;2024-03-02T01:55:27;96663.38;;;8.27;100.00
72721;BME280;60835;50.974;10.322;2024-03-02T01:57:57;96671.28;;;8.27;100.00
72721;BME280;60835;50.974;10.322;2024-03-02T02:00:24;96660.09;;;8.25;100.00
72721;BME280;60835;50.974;10.322;2024-03-02T02:02:53;96661.38;;;8.29;100.00
72721;BME280;60835;50.974;10.322;2024-03-02T02:05:20;96654.81;;;8.25;100.00
72721;BME280;60835;50.974;10.322;2024-03-02T02:07:47;96652.19;;;8.25;100.00
72721;BME280;60835;50.974;10.322;2024-03-02T02:10:13;96666.28;;;8.32;100.00
72721;BME280;60835;50.974;10.322;2024-03-02T02:12:40;96667.38;;;8.23;100.00
72721;BME280;60835;50.974;10.322;2024-03-02T02:15:26;96615.41;;;8.03;100.00
72721;BME280;60835;50.974;10.322;2024-03-02T02:17:54;96646.00;;;8.18;100.00
72721;BME280;60835;50.974;10.322;2024-03-02T02:20:22;96650.84;;;8.29;100.00
72721;BME280;60835;50.974;10.322;2024-03-02T02:23:02;96647.44;;;8.21;100.00
72721;BME280;60835;50.974;10.322;2024-03-02T02:25:30;96649.50;;;8.33;100.00
72721;BME280;60835;50.974;10.322;2024-03-02T02:27:57;96645.13;;;8.26;100.00
72721;BME280;60835;50.974;10.322;2024-03-02T02:30:30;96640.84;;;8.25;100.00
72721;BME280;60835;50.974;10.322;2024-03-02T02:32:57;96604.34;;;8.07;100.00
72721;BME280;60835;50.974;10.322;2024-03-02T02:35:24;96579.00;;;8.06;100.00
72721;BME280;60835;50.974;10.322;2024-03-02T02:37:53;96615.25;;;8.33;100.00
72721;BME280;60835;50.974;10.322;2024-03-02T02:40:20;96616.31;;;8.24;100.00
72721;BME280;60835;50.974;10.322;2024-03-02T02:42:47;96632.25;;;8.31;100.00
72721;BME280;60835;50.974;10.322;2024-03-02T02:45:15;96608.97;;;8.34;100.00
72721;BME280;60835;50.974;10.322;2024-03-02T02:47:43;96619.50;;;8.34;100.00
72721;BME280;60835;50.974;10.322;2024-03-02T02:50:11;96594.97;;;8.19;100.00
72721;BME280;60835;50.974;10.322;2024-03-02T02:52:40;96621.34;;;8.34;100.00
72721;BME280;60835;50.974;10.322;2024-03-02T02:55:09;96619.34;;;8.36;100.00
72721;BME280;60835;50.974;10.322;2024-03-02T02:57:37;96617.88;;;8.33;100.00
72721;BME280;60835;50.974;10.322;2024-03-02T03:00:07;96601.69;;;8.22;100.00
72721;BME280;60835;50.974;10.322;2024-03-02T03:02:37;96617.22;;;8.31;100.00
72721;BME280;60835;50.974;10.322;2024-03-02T03:05:05;96578.91;;;8.14;100.00
72721;BME280;60835;50.974;10.322;2024-03-02T03:07:32;96612.63;;;8.33;100.00
72721;BME280;60835;50.974;10.322;2024-03-02T03:10:01;96559.19;;;8.10;100.00
72721;BME280;60835;50.974;10.322;2024-03-02T03:12:29;96550.13;;;8.27;100.00
72721;BME280;60835;50.974;10.322;2024-03-02T03:14:55;96550.19;;;8.19;100.00
72721;BME280;60835;50.974;10.322;2024-03-02T03:17:22;96593.19;;;8.55;100.00
72721;BME280;60835;50.974;10.322;2024-03-02T03:19:50;96549.38;;;8.33;100.00
72721;BME280;60835;50.974;10.322;2024-03-02T03:22:16;96563.38;;;8.34;100.00
72721;BME280;60835;50.974;10.322;2024-03-02T03:24:43;96589.06;;;8.46;100.00
72721;BME280;60835;50.974;10.322;2024-03-02T03:27:10;96594.69;;;8.43;100.00
72721;BME280;60835;50.974;10.322;2024-03-02T03:29:38;96537.50;;;8.08;100.00
72721;BME280;60835;50.974;10.322;2024-03-02T03:32:05;96591.44;;;8.41;100.00
72721;BME280;60835;50.974;10.322;2024-03-02T03:34:34;96589.25;;;8.30;100.00
72721;BME280;60835;50.974;10.322;2024-03-02T03:37:01;96602.69;;;8.35;100.00
72721;BME280;60835;50.974;10.322;2024-03-02T03:39:28;96598.00;;;8.31;100.00
72721;BME280;60835;50.974;10.322;2024-03-02T03:41:57;96597.78;;;8.32;100.00
72721;BME280;60835;50.974;10.322;2024-03-02T03:44:24;96593.34;;;8.33;100.00
72721;BME280;60835;50.974;10.322;2024-03-02T03:46:50;96598.16;;;8.29;100.00
72721;BME280;60835;50.974;10.322;2024-03-02T03:49:17;96592.88;;;8.29;100.00
72721;BME280;60835;50.974;10.322;2024-03-02T03:51:44;96561.28;;;8.15;100.00
72721;BME280;60835;50.974;10.322;2024-03-02T03:54:10;96589.34;;;8.22;100.00
72721;BME280;60835;50.974;10.322;2024-03-02T03:56:37;96553.66;;;8.05;100.00
72721;BME280;60835;50.974;10.322;2024-03-02T03:59:04;96588.53;;;8.36;100.00
72721;BME280;60835;50.974;10.322;2024-03-02T04:01:31;96547.41;;;8.06;100.00
72721;BME280;60835;50.974;10.322;2024-03-02T04:03:58;96546.41;;;8.07;100.00
72721;BME280;60835;50.974;10.322;2024-03-02T04:06:24;96592.16;;;8.35;100.00
72721;BME280;60835;50.974;10.322;2024-03-02T04:08:52;96527.81;;;7.94;100.00
72721;BME280;60835;50.974;10.322;2024-03-02T04:11:18;96595.78;;;8.34;100.00
72721;BME280;60835;50.974;10.322;2024-03-02T04:13:45;96547.97;;;8.02;100.00
72721;BME280;60835;50.974;10.322;2024-03-02T04:16:11;96599.19;;;8.28;100.00
72721;BME280;60835;50.974;10.322;2024-03-02T04:18:38;96594.91;;;8.27;100.00
72721;BME280;60835;50.974;10.322;2024-03-02T04:21:06;96589.63;;;8.27;100.00
72721;BME280;60835;50.974;10.322;2024-03-02T04:23:32;96599.25;;;8.35;100.00
72721;BME280;60835;50.974;10.322;2024-03-02T04:25:59;96561.28;;;8.15;100.00
72721;BME280;60835;50.974;10.322;2024-03-02T04:28:26;96584.44;;;8.19;100.00
72721;BME280;60835;50.974;10.322;2024-03-02T04:30:52;96567.69;;;7.91;100.00
72721;BME280;60835;50.974;10.322;2024-03-02T04:33:19;96518.31;;;7.64;100.00
72721;BME280;60835;50.974;10.322;2024-03-02T04:35:45;96601.63;;;8.15;100.00
72721;BME280;60835;50.974;10.322;2024-03-02T04:38:13;96611.34;;;8.29;100.00
72721;BME280;60835;50.974;10.322;2024-03-02T04:40:39;96603.59;;;8.13;100.00
72721;BME280;60835;50.974;10.322;2024-03-02T04:43:06;96614.50;;;8.10;100.00
72721;BME280;60835;50.974;10.322;2024-03-02T04:45:35;96619.59;;;7.97;100.00
72721;BME280;60835;50.974;10.322;2024-03-02T04:48:02;96614.25;;;7.90;100.00
72721;BME280;60835;50.974;10.322;2024-03-02T04:50:29;96603.88;;;7.89;100.00
72721;BME280;60835;50.974;10.322;2024-03-02T04:52:55;96606.41;;;7.97;100.00
72721;BME280;60835;50.974;10.322;2024-03-02T04:55:22;96597.91;;;7.80;100.00
72721;BME280;60835;50.974;10.322;2024-03-02T04:58:13;96578.41;;;7.75;100.00
72721;BME280;60835;50.974;10.322;2024-03-02T05:00:39;96591.19;;;7.78;100.00
72721;BME280;60835;50.974;10.322;2024-03-02T05:03:06;96606.72;;;7.87;100.00
72721;BME280;60835;50.974;10.322;2024-03-02T05:05:33;96595.63;;;7.92;100.00
72721;BME280;60835;50.974;10.322;2024-03-02T05:07:59;96602.72;;;7.91;100.00
72721;BME280;60835;50.974;10.322;2024-03-02T05:10:26;96609.63;;;7.78;100.00
72721;BME280;60835;50.974;10.322;2024-03-02T05:12:52;96601.06;;;7.76;100.00
72721;BME280;60835;50.974;10.322;2024-03-02T05:15:27;96595.00;;;7.75;100.00
72721;BME280;60835;50.974;10.322;2024-03-02T05:17:54;96568.47;;;7.48;100.00
72721;BME280;60835;50.974;10.322;2024-03-02T05:20:20;96583.56;;;7.68;100.00
72721;BME280;60835;50.974;10.322;2024-03-02T05:22:47;96545.69;;;7.55;100.00
72721;BME280;60835;50.974;10.322;2024-03-02T05:25:15;96550.78;;;7.42;100.00
72721;BME280;60835;50.974;10.322;2024-03-02T05:27:41;96533.56;;;7.54;100.00
72721;BME280;60835;50.974;10.322;2024-03-02T05:30:09;96556.13;;;7.63;100.00
72721;BME280;60835;50.974;10.322;2024-03-02T05:32:36;96536.38;;;7.67;100.00
72721;BME280;60835;50.974;10.322;2024-03-02T05:35:03;96502.53;;;7.34;100.00
72721;BME280;60835;50.974;10.322;2024-03-02T05:37:29;96542.63;;;7.66;100.00
72721;BME280;60835;50.974;10.322;2024-03-02T05:39:56;96524.28;;;7.58;100.00
72721;BME280;60835;50.974;10.322;2024-03-02T05:42:23;96525.22;;;7.65;100.00
72721;BME280;60835;50.974;10.322;2024-03-02T05:44:50;96500.28;;;7.46;100.00
72721;BME280;60835;50.974;10.322;2024-03-02T05:47:16;96530.09;;;7.68;100.00
72721;BME280;60835;50.974;10.322;2024-03-02T05:49:43;96521.56;;;7.66;100.00
72721;BME280;60835;50.974;10.322;2024-03-02T05:52:09;96512.50;;;7.54;100.00
72721;BME280;60835;50.974;10.322;2024-03-02T05:54:37;96477.97;;;7.27;100.00
72721;BME280;60835;50.974;10.322;2024-03-02T05:57:05;96524.03;;;7.67;100.00
72721;BME280;60835;50.974;10.322;2024-03-02T05:59:53;96508.88;;;7.55;100.00
72721;BME280;60835;50.974;10.322;2024-03-02T06:02:20;96515.69;;;7.64;100.00
72721;BME280;60835;50.974;10.322;2024-03-02T06:04:47;96519.75;;;7.66;100.00
72721;BME280;60835;50.974;10.322;2024-03-02T06:07:13;96521.03;;;7.56;100.00
72721;BME280;60835;50.974;10.322;2024-03-02T06:09:40;96500.81;;;7.56;100.00
72721;BME280;60835;50.974;10.322;2024-03-02T06:12:07;96512.16;;;7.57;100.00
72721;BME280;60835;50.974;10.322;2024-03-02T06:14:34;96512.25;;;7.49;100.00
72721;BME280;60835;50.974;10.322;2024-03-02T06:17:01;96487.56;;;7.35;100.00
72721;BME280;60835;50.974;10.322;2024-03-02T06:19:28;96530.13;;;7.53;100.00
72721;BME280;60835;50.974;10.322;2024-03-02T06:21:54;96527.94;;;7.57;100.00
72721;BME280;60835;50.974;10.322;2024-03-02T06:24:21;96522.69;;;7.57;100.00
72721;BME280;60835;50.974;10.322;2024-03-02T06:26:48;96562.75;;;7.29;100.00
72721;BME280;60835;50.974;10.322;2024-03-02T06:29:14;96538.81;;;7.24;100.00
72721;BME280;60835;50.974;10.322;2024-03-02T06:31:41;96516.94;;;7.24;100.00
72721;BME280;60835;50.974;10.322;2024-03-02T06:34:08;96490.84;;;7.22;100.00
72721;BME280;60835;50.974;10.322;2024-03-02T06:36:35;96463.44;;;7.31;100.00
72721;BME280;60835;50.974;10.322;2024-03-02T06:39:01;96540.09;;;7.58;100.00
72721;BME280;60835;50.974;10.322;2024-03-02T06:41:28;96529.03;;;7.48;100.00
72721;BME280;60835;50.974;10.322;2024-03-02T06:43:55;96534.56;;;7.67;100.00
72721;BME280;60835;50.974;10.322;2024-03-02T06:46:26;96536.28;;;7.46;100.00
72721;BME280;60835;50.974;10.322;2024-03-02T06:48:53;96547.16;;;7.72;100.00
72721;BME280;60835;50.974;10.322;2024-03-02T06:51:20;96553.50;;;7.63;100.00
72721;BME280;60835;50.974;10.322;2024-03-02T06:53:47;96554.06;;;7.73;100.00
72721;BME280;60835;50.974;10.322;2024-03-02T06:56:14;96558.06;;;7.69;100.00
72721;BME280;60835;50.974;10.322;2024-03-02T06:58:40;96519.50;;;7.61;100.00
72721;BME280;60835;50.974;10.322;2024-03-02T07:01:07;96511.03;;;7.66;100.00
72721;BME280;60835;50.974;10.322;2024-03-02T07:03:34;96555.03;;;8.01;100.00
72721;BME280;60835;50.974;10.322;2024-03-02T07:06:01;96565.22;;;8.04;100.00
72721;BME280;60835;50.974;10.322;2024-03-02T07:08:28;96572.09;;;8.20;100.00
72721;BME280;60835;50.974;10.322;2024-03-02T07:10:54;96572.84;;;8.28;100.00
72721;BME280;60835;50.974;10.322;2024-03-02T07:13:21;96529.53;;;7.87;100.00
72721;BME280;60835;50.974;10.322;2024-03-02T07:15:48;96595.06;;;8.26;100.00
72721;BME280;60835;50.974;10.322;2024-03-02T07:18:30;96613.66;;;8.24;100.00
72721;BME280;60835;50.974;10.322;2024-03-02T07:20:59;96570.38;;;8.12;100.00
72721;BME280;60835;50.974;10.322;2024-03-02T07:23:27;96609.78;;;8.35;100.00
72721;BME280;60835;50.974;10.322;2024-03-02T07:25:54;96604.09;;;8.52;100.00
72721;BME280;60835;50.974;10.322;2024-03-02T07:28:26;96613.91;;;8.58;100.00
72721;BME280;60835;50.974;10.322;2024-03-02T07:31:02;96614.28;;;8.55;100.00
72721;BME280;60835;50.974;10.322;2024-03-02T07:33:31;96613.63;;;8.68;100.00
72721;BME280;60835;50.974;10.322;2024-03-02T07:36:00;96635.97;;;8.72;100.00
72721;BME280;60835;50.974;10.322;2024-03-02T07:38:31;96589.59;;;8.78;100.00
72721;BME280;60835;50.974;10.322;2024-03-02T07:40:58;96591.59;;;8.97;100.00
72721;BME280;60835;50.974;10.322;2024-03-02T07:43:25;96537.09;;;8.83;100.00
72721;BME280;60835;50.974;10.322;2024-03-02T07:45:52;96577.13;;;9.14;100.00
72721;BME280;60835;50.974;10.322;2024-03-02T07:48:19;96550.00;;;9.20;100.00
72721;BME280;60835;50.974;10.322;2024-03-02T07:50:46;96535.13;;;9.40;100.00
72721;BME280;60835;50.974;10.322;2024-03-02T07:53:12;96520.94;;;9.48;100.00
72721;BME280;60835;50.974;10.322;2024-03-02T07:55:40;96497.31;;;9.67;100.00
72721;BME280;60835;50.974;10.322;2024-03-02T07:58:07;96436.97;;;9.58;100.00
72721;BME280;60835;50.974;10.322;2024-03-02T08:00:35;96483.19;;;10.42;100.00
72721;BME280;60835;50.974;10.322;2024-03-02T08:03:02;96547.13;;;10.91;100.00
72721;BME280;60835;50.974;10.322;2024-03-02T08:05:28;96670.06;;;10.95;100.00
72721;BME280;60835;50.974;10.322;2024-03-02T08:07:55;96877.47;;;11.89;100.00
72721;BME280;60835;50.974;10.322;2024-03-02T08:10:23;97080.56;;;12.44;100.00
72721;BME280;60835;50.974;10.322;2024-03-02T08:12:49;97180.81;;;12.21;100.00
72721;BME280;60835;50.974;10.322;2024-03-02T08:15:16;97243.56;;;12.76;100.00
72721;BME280;60835;50.974;10.322;2024-03-02T08:17:43;97287.13;;;13.35;100.00
72721;BME280;60835;50.974;10.322;2024-03-02T08:20:12;97397.34;;;13.12;100.00
72721;BME280;60835;50.974;10.322;2024-03-02T08:22:39;97439.06;;;14.06;100.00
72721;BME280;60835;50.974;10.322;2024-03-02T08:25:07;97505.91;;;13.56;100.00
72721;BME280;60835;50.974;10.322;2024-03-02T08:27:34;97526.06;;;14.79;100.00
72721;BME280;60835;50.974;10.322;2024-03-02T08:30:02;97588.66;;;14.62;100.00
72721;BME280;60835;50.974;10.322;2024-03-02T08:32:33;97596.78;;;15.08;100.00
72721;BME280;60835;50.974;10.322;2024-03-02T08:34:59;97582.66;;;15.14;100.00
72721;BME280;60835;50.974;10.322;2024-03-02T08:37:26;97622.81;;;15.19;100.00
72721;BME280;60835;50.974;10.322;2024-03-02T08:39:54;97595.56;;;13.75;100.00
72721;BME280;60835;50.974;10.322;2024-03-02T08:42:22;97615.84;;;15.11;100.00
72721;BME280;60835;50.974;10.322;2024-03-02T08:44:49;97635.75;;;15.42;100.00
72721;BME280;60835;50.974;10.322;2024-03-02T08:47:17;97632.91;;;14.70;100.00
72721;BME280;60835;50.974;10.322;2024-03-02T08:49:44;97652.34;;;15.24;100.00
72721;BME280;60835;50.974;10.322;2024-03-02T08:52:10;97672.53;;;15.59;100.00
72721;BME280;60835;50.974;10.322;2024-03-02T08:54:38;97627.84;;;13.72;100.00
72721;BME280;60835;50.974;10.322;2024-03-02T08:57:05;97624.53;;;15.59;100.00
72721;BME280;60835;50.974;10.322;2024-03-02T08:59:32;97690.53;;;16.36;100.00
72721;BME280;60835;50.974;10.322;2024-03-02T09:01:59;97665.63;;;16.62;100.00
72721;BME280;60835;50.974;10.322;2024-03-02T09:04:28;97697.13;;;15.61;100.00
72721;BME280;60835;50.974;10.322;2024-03-02T09:07:00;97656.44;;;15.33;100.00
72721;BME280;60835;50.974;10.322;2024-03-02T09:09:26;97686.03;;;15.51;100.00
72721;BME280;60835;50.974;10.322;2024-03-02T09:11:54;97682.34;;;15.65;100.00
72721;BME280;60835;50.974;10.322;2024-03-02T09:14:24;97685.72;;;15.13;100.00
72721;BME280;60835;50.974;10.322;2024-03-02T09:16:51;97691.81;;;15.88;100.00
72721;BME280;60835;50.974;10.322;2024-03-02T09:19:18;97710.25;;;15.69;100.00
72721;BME280;60835;50.974;10.322;2024-03-02T09:21:45;97693.66;;;14.19;100.00
72721;BME280;60835;50.974;10.322;2024-03-02T09:24:13;97698.56;;;14.90;100.00
72721;BME280;60835;50.974;10.322;2024-03-02T09:26:43;97715.44;;;15.10;100.00
72721;BME280;60835;50.974;10.322;2024-03-02T09:29:10;97741.66;;;14.32;100.00
72721;BME280;60835;50.974;10.322;2024-03-02T09:31:40;97696.22;;;13.57;100.00
72721;BME280;60835;50.974;10.322;2024-03-02T09:34:08;97697.25;;;14.11;100.00
72721;BME280;60835;50.974;10.322;2024-03-02T09:36:35;97681.06;;;14.68;100.00
72721;BME280;60835;50.974;10.322;2024-03-02T09:39:02;97701.25;;;13.94;100.00
72721;BME280;60835;50.974;10.322;2024-03-02T09:41:32;97690.63;;;14.56;100.00
72721;BME280;60835;50.974;10.322;2024-03-02T09:43:59;97717.28;;;14.07;100.00
72721;BME280;60835;50.974;10.322;2024-03-02T09:46:26;97690.44;;;13.74;100.00
72721;BME280;60835;50.974;10.322;2024-03-02T09:48:53;97696.38;;;14.59;100.00
72721;BME280;60835;50.974;10.322;2024-03-02T09:51:20;97749.72;;;15.27;100.00
72721;BME280;60835;50.974;10.322;2024-03-02T09:53:47;97735.56;;;14.79;100.00
72721;BME280;60835;50.974;10.322;2024-03-02T09:56:14;97761.13;;;15.61;100.00
72721;BME280;60835;50.974;10.322;2024-03-02T09:58:44;97754.25;;;15.39;100.00
72721;BME280;60835;50.974;10.322;2024-03-02T10:01:11;97792.97;;;15.96;100.00
72721;BME280;60835;50.974;10.322;2024-03-02T10:03:38;97800.16;;;16.02;100.00
72721;BME280;60835;50.974;10.322;2024-03-02T10:06:25;97768.34;;;16.20;100.00
72721;BME280;60835;50.974;10.322;2024-03-02T10:08:53;97815.75;;;15.98;100.00
72721;BME280;60835;50.974;10.322;2024-03-02T10:11:28;97817.63;;;15.44;100.00
72721;BME280;60835;50.974;10.322;2024-03-02T10:16:38;97792.81;;;15.43;100.00
72721;BME280;60835;50.974;10.322;2024-03-02T10:19:24;97807.09;;;15.76;100.00
72721;BME280;60835;50.974;10.322;2024-03-02T10:21:54;97837.44;;;15.75;100.00
72721;BME280;60835;50.974;10.322;2024-03-02T10:24:22;97873.66;;;16.37;100.00
72721;BME280;60835;50.974;10.322;2024-03-02T10:26:49;97884.81;;;16.86;100.00
72721;BME280;60835;50.974;10.322;2024-03-02T10:29:16;97952.78;;;17.30;100.00
72721;BME280;60835;50.974;10.322;2024-03-02T10:31:45;97960.41;;;16.67;100.00
72721;BME280;60835;50.974;10.322;2024-03-02T10:34:12;97974.38;;;16.56;100.00
72721;BME280;60835;50.974;10.322;2024-03-02T10:36:42;97981.38;;;15.62;100.00
72721;BME280;60835;50.974;10.322;2024-03-02T10:39:10;97994.22;;;15.87;100.00
72721;BME280;60835;50.974;10.322;2024-03-02T10:41:38;97986.50;;;14.81;100.00
72721;BME280;60835;50.974;10.322;2024-03-02T10:44:07;97993.53;;;16.19;100.00
72721;BME280;60835;50.974;10.322;2024-03-02T10:46:36;97985.16;;;13.77;100.00
72721;BME280;60835;50.974;10.322;2024-03-02T10:49:04;97940.09;;;14.26;100.00
72721;BME280;60835;50.974;10.322;2024-03-02T10:51:34;97941.59;;;14.14;100.00
72721;BME280;60835;50.974;10.322;2024-03-02T10:54:04;97913.78;;;13.45;100.00
72721;BME280;60835;50.974;10.322;2024-03-02T10:56:41;97894.44;;;14.93;100.00
72721;BME280;60835;50.974;10.322;2024-03-02T10:59:22;97969.06;;;14.78;100.00
72721;BME280;60835;50.974;10.322;2024-03-02T11:01:58;97950.47;;;14.36;100.00
72721;BME280;60835;50.974;10.322;2024-03-02T11:04:31;97952.84;;;15.22;100.00
72721;BME280;60835;50.974;10.322;2024-03-02T11:07:07;97959.06;;;14.80;100.00
72721;BME280;60835;50.974;10.322;2024-03-02T11:09:40;97981.81;;;15.59;100.00
72721;BME280;60835;50.974;10.322;2024-03-02T11:12:23;97987.09;;;15.94;100.00
72721;BME280;60835;50.974;10.322;2024-03-02T11:14:53;97978.88;;;15.54;100.00
72721;BME280;60835;50.974;10.322;2024-03-02T11:17:23;97962.78;;;16.23;100.00
72721;BME280;60835;50.974;10.322;2024-03-02T11:19:51;97998.38;;;15.96;100.00
72721;BME280;60835;50.974;10.322;2024-03-02T11:22:20;97990.59;;;16.55;100.00
72721;BME280;60835;50.974;10.322;2024-03-02T11:24:51;97970.56;;;15.70;100.00
72721;BME280;60835;50.974;10.322;2024-03-02T11:33:02;97962.66;;;15.49;100.00
72721;BME280;60835;50.974;10.322;2024-03-02T11:35:41;97993.63;;;16.45;100.00
72721;BME280;60835;50.974;10.322;2024-03-02T11:38:14;97996.88;;;16.27;100.00
72721;BME280;60835;50.974;10.322;2024-03-02T11:40:43;97989.19;;;17.11;100.00
72721;BME280;60835;50.974;10.322;2024-03-02T11:43:10;97996.56;;;16.63;100.00
72721;BME280;60835;50.974;10.322;2024-03-02T11:45:38;98000.59;;;16.33;100.00
72721;BME280;60835;50.974;10.322;2024-03-02T11:48:08;97990.63;;;17.33;100.00
72721;BME280;60835;50.974;10.322;2024-03-02T11:50:47;98004.38;;;17.76;100.00
72721;BME280;60835;50.974;10.322;2024-03-02T11:53:15;97999.59;;;18.36;100.00
72721;BME280;60835;50.974;10.322;2024-03-02T11:55:44;97986.38;;;16.26;100.00
72721;BME280;60835;50.974;10.322;2024-03-02T11:58:14;97989.00;;;16.13;100.00
72721;BME280;60835;50.974;10.322;2024-03-02T12:00:42;97990.31;;;16.36;100.00
72721;BME280;60835;50.974;10.322;2024-03-02T12:03:12;97984.28;;;16.88;100.00
72721;BME280;60835;50.974;10.322;2024-03-02T12:05:39;97970.66;;;17.62;100.00
72721;BME280;60835;50.974;10.322;2024-03-02T12:08:07;97979.56;;;16.97;100.00
72721;BME280;60835;50.974;10.322;2024-03-02T12:10:35;97969.91;;;19.49;100.00
72721;BME280;60835;50.974;10.322;2024-03-02T12:13:07;97970.56;;;17.88;100.00
72721;BME280;60835;50.974;10.322;2024-03-02T12:15:38;97982.19;;;16.77;100.00
72721;BME280;60835;50.974;10.322;2024-03-02T12:18:06;97972.31;;;17.63;100.00
72721;BME280;60835;50.974;10.322;2024-03-02T12:20:33;97974.84;;;18.02;100.00
72721;BME280;60835;50.974;10.322;2024-03-02T12:23:04;97974.66;;;18.73;100.00
72721;BME280;60835;50.974;10.322;2024-03-02T12:25:31;97927.94;;;17.03;100.00
72721;BME280;60835;50.974;10.322;2024-03-02T12:28:01;97971.34;;;17.95;100.00
72721;BME280;60835;50.974;10.322;2024-03-02T12:30:30;97979.19;;;17.97;100.00
72721;BME280;60835;50.974;10.322;2024-03-02T12:32:58;97971.81;;;18.68;100.00
72721;BME280;60835;50.974;10.322;2024-03-02T12:35:26;97970.50;;;18.01;100.00
72721;BME280;60835;50.974;10.322;2024-03-02T12:37:54;97978.50;;;16.65;100.00
72721;BME280;60835;50.974;10.322;2024-03-02T12:40:21;97975.63;;;17.06;100.00
72721;BME280;60835;50.974;10.322;2024-03-02T12:42:50;97963.94;;;18.73;100.00
72721;BME280;60835;50.974;10.322;2024-03-02T12:45:17;97973.72;;;15.80;100.00
72721;BME280;60835;50.974;10.322;2024-03-02T12:47:51;97972.63;;;16.29;100.00
72721;BME280;60835;50.974;10.322;2024-03-02T12:50:19;97956.69;;;16.68;100.00
72721;BME280;60835;50.974;10.322;2024-03-02T12:52:53;97928.72;;;16.38;100.00
72721;BME280;60835;50.974;10.322;2024-03-02T12:55:21;97966.16;;;18.00;100.00
72721;BME280;60835;50.974;10.322;2024-03-02T12:57:52;97954.59;;;18.51;100.00
72721;BME280;60835;50.974;10.322;2024-03-02T13:00:20;97855.09;;;17.27;100.00
72721;BME280;60835;50.974;10.322;2024-03-02T13:02:49;97947.53;;;17.74;100.00